sensor_id;sensor_type;location;lat;lon;timestamp;P1;durP1;ratioP1;P2;durP2;ratioP2
75220;SDS011;63802;53.232;6.570;2023-06-22T00:00:39;29.65;;;15.82;;
75220;SDS011;63802;53.232;6.570;2023-06-22T00:03:07;27.98;;;15.52;;
75220;SDS011;63802;53.232;6.570;2023-06-22T00:05:32;31.23;;;16.13;;
75220;SDS011;63802;53.232;6.570;2023-06-22T00:07:58;27.15;;;15.60;;
75220;SDS011;63802;53.232;6.570;2023-06-22T00:10:27;29.75;;;15.07;;
75220;SDS011;63802;53.232;6.570;2023-06-22T00:12:52;27.38;;;14.68;;
75220;SDS011;63802;53.232;6.570;2023-06-22T00:15:18;25.67;;;15.27;;
75220;SDS011;63802;53.232;6.570;2023-06-22T00:17:43;28.17;;;15.15;;
75220;SDS011;63802;53.232;6.570;2023-06-22T00:20:08;24.17;;;15.07;;
75220;SDS011;63802;53.232;6.570;2023-06-22T00:22:35;27.02;;;15.88;;
75220;SDS011;63802;53.232;6.570;2023-06-22T00:25:04;28.73;;;15.98;;
75220;SDS011;63802;53.232;6.570;2023-06-22T00:27:34;31.55;;;16.63;;
75220;SDS011;63802;53.232;6.570;2023-06-22T00:30:00;25.45;;;14.32;;
75220;SDS011;63802;53.232;6.570;2023-06-22T00:32:26;28.80;;;15.63;;
75220;SDS011;63802;53.232;6.570;2023-06-22T00:34:51;27.70;;;14.90;;
75220;SDS011;63802;53.232;6.570;2023-06-22T00:37:17;26.23;;;15.07;;
75220;SDS011;63802;53.232;6.570;2023-06-22T00:39:43;26.80;;;16.08;;
75220;SDS011;63802;53.232;6.570;2023-06-22T00:42:09;28.38;;;15.63;;
75220;SDS011;63802;53.232;6.570;2023-06-22T00:44:35;32.28;;;16.75;;
75220;SDS011;63802;53.232;6.570;2023-06-22T00:47:02;33.15;;;15.45;;
75220;SDS011;63802;53.232;6.570;2023-06-22T00:49:28;29.20;;;15.52;;
75220;SDS011;63802;53.232;6.570;2023-06-22T00:51:53;29.67;;;16.23;;
75220;SDS011;63802;53.232;6.570;2023-06-22T00:54:20;28.40;;;15.32;;
75220;SDS011;63802;53.232;6.570;2023-06-22T00:56:58;32.83;;;17.20;;
75220;SDS011;63802;53.232;6.570;2023-06-22T00:59:24;30.35;;;15.60;;
75220;SDS011;63802;53.232;6.570;2023-06-22T01:01:51;31.35;;;15.80;;
75220;SDS011;63802;53.232;6.570;2023-06-22T01:04:17;31.52;;;17.02;;
75220;SDS011;63802;53.232;6.570;2023-06-22T01:06:47;32.58;;;16.52;;
75220;SDS011;63802;53.232;6.570;2023-06-22T01:09:27;31.30;;;16.85;;
75220;SDS011;63802;53.232;6.570;2023-06-22T01:12:01;34.63;;;16.33;;
75220;SDS011;63802;53.232;6.570;2023-06-22T01:14:36;37.35;;;18.67;;
75220;SDS011;63802;53.232;6.570;2023-06-22T01:17:07;35.33;;;18.95;;
75220;SDS011;63802;53.232;6.570;2023-06-22T01:22:00;34.63;;;19.33;;
75220;SDS011;63802;53.232;6.570;2023-06-22T01:27:31;34.00;;;18.55;;
75220;SDS011;63802;53.232;6.570;2023-06-22T01:30:16;36.45;;;20.85;;
75220;SDS011;63802;53.232;6.570;2023-06-22T01:32:43;34.13;;;19.30;;
75220;SDS011;63802;53.232;6.570;2023-06-22T01:35:10;36.50;;;19.20;;
75220;SDS011;63802;53.232;6.570;2023-06-22T01:37:37;31.73;;;19.27;;
75220;SDS011;63802;53.232;6.570;2023-06-22T01:40:03;28.80;;;18.50;;
75220;SDS011;63802;53.232;6.570;2023-06-22T01:42:31;27.25;;;19.40;;
75220;SDS011;63802;53.232;6.570;2023-06-22T01:44:57;30.55;;;19.48;;
75220;SDS011;63802;53.232;6.570;2023-06-22T01:47:24;30.52;;;19.20;;
75220;SDS011;63802;53.232;6.570;2023-06-22T01:49:50;33.00;;;20.65;;
75220;SDS011;63802;53.232;6.570;2023-06-22T01:52:19;34.00;;;20.88;;
75220;SDS011;63802;53.232;6.570;2023-06-22T01:54:46;34.95;;;19.35;;
75220;SDS011;63802;53.232;6.570;2023-06-22T01:57:11;35.30;;;20.17;;
75220;SDS011;63802;53.232;6.570;2023-06-22T01:59:39;39.97;;;22.40;;
75220;SDS011;63802;53.232;6.570;2023-06-22T02:02:10;34.20;;;20.10;;
75220;SDS011;63802;53.232;6.570;2023-06-22T02:04:51;33.23;;;19.10;;
75220;SDS011;63802;53.232;6.570;2023-06-22T02:07:20;34.78;;;21.25;;
75220;SDS011;63802;53.232;6.570;2023-06-22T02:09:48;41.33;;;23.85;;
75220;SDS011;63802;53.232;6.570;2023-06-22T02:12:18;39.70;;;22.50;;
75220;SDS011;63802;53.232;6.570;2023-06-22T02:17:13;34.00;;;20.25;;
75220;SDS011;63802;53.232;6.570;2023-06-22T02:19:42;43.08;;;21.90;;
75220;SDS011;63802;53.232;6.570;2023-06-22T02:22:07;40.80;;;22.70;;
75220;SDS011;63802;53.232;6.570;2023-06-22T02:24:33;36.92;;;22.23;;
75220;SDS011;63802;53.232;6.570;2023-06-22T02:26:59;41.70;;;22.10;;
75220;SDS011;63802;53.232;6.570;2023-06-22T02:29:25;38.05;;;21.50;;
75220;SDS011;63802;53.232;6.570;2023-06-22T02:31:52;35.17;;;19.33;;
75220;SDS011;63802;53.232;6.570;2023-06-22T02:34:18;33.95;;;20.05;;
75220;SDS011;63802;53.232;6.570;2023-06-22T02:36:47;34.22;;;20.63;;
75220;SDS011;63802;53.232;6.570;2023-06-22T02:39:19;38.75;;;20.35;;
75220;SDS011;63802;53.232;6.570;2023-06-22T02:41:47;39.92;;;22.90;;
75220;SDS011;63802;53.232;6.570;2023-06-22T02:44:14;42.20;;;22.52;;
75220;SDS011;63802;53.232;6.570;2023-06-22T02:46:39;37.90;;;22.17;;
75220;SDS011;63802;53.232;6.570;2023-06-22T02:49:05;39.83;;;22.40;;
75220;SDS011;63802;53.232;6.570;2023-06-22T02:51:32;41.35;;;22.50;;
75220;SDS011;63802;53.232;6.570;2023-06-22T02:53:59;45.25;;;24.02;;
75220;SDS011;63802;53.232;6.570;2023-06-22T02:56:25;39.08;;;20.10;;
75220;SDS011;63802;53.232;6.570;2023-06-22T02:58:51;45.75;;;23.50;;
75220;SDS011;63802;53.232;6.570;2023-06-22T03:01:17;38.25;;;20.73;;
75220;SDS011;63802;53.232;6.570;2023-06-22T03:03:48;38.47;;;22.02;;
75220;SDS011;63802;53.232;6.570;2023-06-22T03:06:13;44.88;;;23.20;;
75220;SDS011;63802;53.232;6.570;2023-06-22T03:08:39;38.30;;;19.65;;
75220;SDS011;63802;53.232;6.570;2023-06-22T03:11:04;36.72;;;21.33;;
75220;SDS011;63802;53.232;6.570;2023-06-22T03:13:29;38.97;;;21.52;;
75220;SDS011;63802;53.232;6.570;2023-06-22T03:15:55;36.03;;;19.75;;
75220;SDS011;63802;53.232;6.570;2023-06-22T03:18:20;41.05;;;20.85;;
75220;SDS011;63802;53.232;6.570;2023-06-22T03:20:47;35.90;;;20.42;;
75220;SDS011;63802;53.232;6.570;2023-06-22T03:23:12;33.85;;;19.85;;
75220;SDS011;63802;53.232;6.570;2023-06-22T03:25:38;36.45;;;21.25;;
75220;SDS011;63802;53.232;6.570;2023-06-22T03:28:03;39.67;;;20.45;;
75220;SDS011;63802;53.232;6.570;2023-06-22T03:30:29;35.10;;;19.67;;
75220;SDS011;63802;53.232;6.570;2023-06-22T03:32:55;34.67;;;19.73;;
75220;SDS011;63802;53.232;6.570;2023-06-22T03:35:20;35.92;;;20.60;;
75220;SDS011;63802;53.232;6.570;2023-06-22T03:37:46;36.00;;;20.95;;
75220;SDS011;63802;53.232;6.570;2023-06-22T03:40:11;45.33;;;23.77;;
75220;SDS011;63802;53.232;6.570;2023-06-22T03:42:37;38.03;;;21.70;;
75220;SDS011;63802;53.232;6.570;2023-06-22T03:45:03;41.92;;;23.25;;
75220;SDS011;63802;53.232;6.570;2023-06-22T03:47:29;43.97;;;23.42;;
75220;SDS011;63802;53.232;6.570;2023-06-22T03:49:54;39.63;;;22.45;;
75220;SDS011;63802;53.232;6.570;2023-06-22T03:52:23;40.00;;;20.98;;
75220;SDS011;63802;53.232;6.570;2023-06-22T03:54:50;43.35;;;23.45;;
75220;SDS011;63802;53.232;6.570;2023-06-22T03:57:16;47.63;;;24.02;;
75220;SDS011;63802;53.232;6.570;2023-06-22T03:59:41;47.00;;;23.52;;
75220;SDS011;63802;53.232;6.570;2023-06-22T04:02:06;51.67;;;27.23;;
75220;SDS011;63802;53.232;6.570;2023-06-22T04:04:32;50.28;;;27.05;;
75220;SDS011;63802;53.232;6.570;2023-06-22T04:06:58;48.83;;;24.80;;
75220;SDS011;63802;53.232;6.570;2023-06-22T04:09:24;45.38;;;25.77;;
75220;SDS011;63802;53.232;6.570;2023-06-22T04:11:50;46.85;;;25.23;;
75220;SDS011;63802;53.232;6.570;2023-06-22T04:14:15;53.10;;;25.90;;
75220;SDS011;63802;53.232;6.570;2023-06-22T04:16:40;52.28;;;26.80;;
75220;SDS011;63802;53.232;6.570;2023-06-22T04:19:06;52.75;;;27.50;;
75220;SDS011;63802;53.232;6.570;2023-06-22T04:21:32;58.28;;;26.58;;
75220;SDS011;63802;53.232;6.570;2023-06-22T04:23:57;44.88;;;23.30;;
75220;SDS011;63802;53.232;6.570;2023-06-22T04:26:25;47.72;;;25.15;;
75220;SDS011;63802;53.232;6.570;2023-06-22T04:28:51;50.88;;;25.38;;
75220;SDS011;63802;53.232;6.570;2023-06-22T04:31:20;52.70;;;27.08;;
75220;SDS011;63802;53.232;6.570;2023-06-22T04:33:46;56.70;;;26.65;;
75220;SDS011;63802;53.232;6.570;2023-06-22T04:36:12;53.88;;;27.02;;
75220;SDS011;63802;53.232;6.570;2023-06-22T04:38:38;54.22;;;26.58;;
75220;SDS011;63802;53.232;6.570;2023-06-22T04:41:04;53.85;;;26.25;;
75220;SDS011;63802;53.232;6.570;2023-06-22T04:43:31;48.25;;;27.45;;
75220;SDS011;63802;53.232;6.570;2023-06-22T04:45:59;49.00;;;26.50;;
75220;SDS011;63802;53.232;6.570;2023-06-22T04:48:33;49.78;;;26.30;;
75220;SDS011;63802;53.232;6.570;2023-06-22T04:51:00;45.15;;;25.05;;
75220;SDS011;63802;53.232;6.570;2023-06-22T04:53:29;52.08;;;26.55;;
75220;SDS011;63802;53.232;6.570;2023-06-22T04:55:55;44.75;;;25.33;;
75220;SDS011;63802;53.232;6.570;2023-06-22T04:58:21;40.55;;;24.63;;
75220;SDS011;63802;53.232;6.570;2023-06-22T05:00:47;42.10;;;26.23;;
75220;SDS011;63802;53.232;6.570;2023-06-22T05:03:13;46.50;;;26.45;;
75220;SDS011;63802;53.232;6.570;2023-06-22T05:05:38;38.58;;;23.55;;
75220;SDS011;63802;53.232;6.570;2023-06-22T05:08:04;43.60;;;24.35;;
75220;SDS011;63802;53.232;6.570;2023-06-22T05:10:32;42.67;;;24.58;;
75220;SDS011;63802;53.232;6.570;2023-06-22T05:15:26;40.35;;;23.10;;
75220;SDS011;63802;53.232;6.570;2023-06-22T05:17:55;44.20;;;25.10;;
75220;SDS011;63802;53.232;6.570;2023-06-22T05:20:21;40.90;;;24.08;;
75220;SDS011;63802;53.232;6.570;2023-06-22T05:22:47;39.30;;;23.58;;
75220;SDS011;63802;53.232;6.570;2023-06-22T05:25:13;39.78;;;24.10;;
75220;SDS011;63802;53.232;6.570;2023-06-22T05:27:38;39.47;;;23.85;;
75220;SDS011;63802;53.232;6.570;2023-06-22T05:30:07;35.53;;;22.20;;
75220;SDS011;63802;53.232;6.570;2023-06-22T05:32:34;37.13;;;23.27;;
75220;SDS011;63802;53.232;6.570;2023-06-22T05:35:00;38.53;;;23.42;;
75220;SDS011;63802;53.232;6.570;2023-06-22T05:37:26;36.20;;;23.02;;
75220;SDS011;63802;53.232;6.570;2023-06-22T05:39:53;35.35;;;21.33;;
75220;SDS011;63802;53.232;6.570;2023-06-22T05:42:20;38.95;;;21.60;;
75220;SDS011;63802;53.232;6.570;2023-06-22T05:44:49;35.40;;;20.88;;
75220;SDS011;63802;53.232;6.570;2023-06-22T05:47:15;38.75;;;22.52;;
75220;SDS011;63802;53.232;6.570;2023-06-22T05:49:40;38.00;;;22.08;;
75220;SDS011;63802;53.232;6.570;2023-06-22T05:52:06;31.70;;;20.75;;
75220;SDS011;63802;53.232;6.570;2023-06-22T05:54:39;33.92;;;19.65;;
75220;SDS011;63802;53.232;6.570;2023-06-22T05:57:09;30.77;;;18.90;;
75220;SDS011;63802;53.232;6.570;2023-06-22T05:59:35;32.72;;;19.10;;
75220;SDS011;63802;53.232;6.570;2023-06-22T06:02:01;29.08;;;17.40;;
75220;SDS011;63802;53.232;6.570;2023-06-22T06:04:27;29.15;;;17.05;;
75220;SDS011;63802;53.232;6.570;2023-06-22T06:06:58;26.30;;;15.02;;
75220;SDS011;63802;53.232;6.570;2023-06-22T06:09:25;25.70;;;16.42;;
75220;SDS011;63802;53.232;6.570;2023-06-22T06:11:50;26.75;;;16.83;;
75220;SDS011;63802;53.232;6.570;2023-06-22T06:14:24;31.33;;;17.95;;
75220;SDS011;63802;53.232;6.570;2023-06-22T06:16:50;27.98;;;16.55;;
75220;SDS011;63802;53.232;6.570;2023-06-22T06:19:15;30.60;;;18.15;;
75220;SDS011;63802;53.232;6.570;2023-06-22T06:21:41;29.67;;;17.90;;
75220;SDS011;63802;53.232;6.570;2023-06-22T06:24:06;34.38;;;18.50;;
75220;SDS011;63802;53.232;6.570;2023-06-22T06:26:32;31.73;;;18.42;;
75220;SDS011;63802;53.232;6.570;2023-06-22T06:29:00;31.02;;;19.02;;
75220;SDS011;63802;53.232;6.570;2023-06-22T06:31:27;26.00;;;16.65;;
75220;SDS011;63802;53.232;6.570;2023-06-22T06:33:56;24.02;;;14.43;;
75220;SDS011;63802;53.232;6.570;2023-06-22T06:36:22;25.83;;;15.77;;
75220;SDS011;63802;53.232;6.570;2023-06-22T06:38:51;30.63;;;16.38;;
75220;SDS011;63802;53.232;6.570;2023-06-22T06:41:19;23.98;;;14.02;;
75220;SDS011;63802;53.232;6.570;2023-06-22T06:43:46;19.50;;;12.82;;
75220;SDS011;63802;53.232;6.570;2023-06-22T06:46:14;23.77;;;15.77;;
75220;SDS011;63802;53.232;6.570;2023-06-22T06:48:40;20.30;;;11.68;;
75220;SDS011;63802;53.232;6.570;2023-06-22T06:51:25;18.42;;;12.50;;
75220;SDS011;63802;53.232;6.570;2023-06-22T06:53:51;20.38;;;12.77;;
75220;SDS011;63802;53.232;6.570;2023-06-22T06:56:17;19.45;;;12.10;;
75220;SDS011;63802;53.232;6.570;2023-06-22T06:58:42;19.15;;;12.45;;
75220;SDS011;63802;53.232;6.570;2023-06-22T07:01:10;21.48;;;13.57;;
75220;SDS011;63802;53.232;6.570;2023-06-22T07:03:38;23.58;;;13.80;;
75220;SDS011;63802;53.232;6.570;2023-06-22T07:06:04;20.92;;;13.30;;
75220;SDS011;63802;53.232;6.570;2023-06-22T07:08:30;21.63;;;14.00;;
75220;SDS011;63802;53.232;6.570;2023-06-22T07:10:55;19.95;;;13.65;;
75220;SDS011;63802;53.232;6.570;2023-06-22T07:13:22;18.75;;;12.75;;
75220;SDS011;63802;53.232;6.570;2023-06-22T07:15:47;21.40;;;13.27;;
75220;SDS011;63802;53.232;6.570;2023-06-22T07:18:13;20.48;;;12.45;;
75220;SDS011;63802;53.232;6.570;2023-06-22T07:20:39;20.10;;;12.18;;
75220;SDS011;63802;53.232;6.570;2023-06-22T07:23:07;17.33;;;11.13;;
75220;SDS011;63802;53.232;6.570;2023-06-22T07:25:38;19.67;;;11.85;;
75220;SDS011;63802;53.232;6.570;2023-06-22T07:28:05;16.45;;;10.65;;
75220;SDS011;63802;53.232;6.570;2023-06-22T07:30:36;15.88;;;9.55;;
75220;SDS011;63802;53.232;6.570;2023-06-22T07:33:11;14.40;;;9.15;;
75220;SDS011;63802;53.232;6.570;2023-06-22T07:35:40;16.50;;;9.65;;
75220;SDS011;63802;53.232;6.570;2023-06-22T07:38:07;12.90;;;7.10;;
75220;SDS011;63802;53.232;6.570;2023-06-22T07:40:35;12.98;;;6.72;;
75220;SDS011;63802;53.232;6.570;2023-06-22T07:43:02;14.70;;;7.22;;
75220;SDS011;63802;53.232;6.570;2023-06-22T07:45:28;13.55;;;7.78;;
75220;SDS011;63802;53.232;6.570;2023-06-22T07:48:00;12.50;;;7.75;;
75220;SDS011;63802;53.232;6.570;2023-06-22T07:50:25;12.60;;;7.35;;
75220;SDS011;63802;53.232;6.570;2023-06-22T07:52:54;12.73;;;7.35;;
75220;SDS011;63802;53.232;6.570;2023-06-22T07:55:20;14.20;;;8.38;;
75220;SDS011;63802;53.232;6.570;2023-06-22T07:57:46;16.42;;;7.38;;
75220;SDS011;63802;53.232;6.570;2023-06-22T08:00:17;12.05;;;7.32;;
75220;SDS011;63802;53.232;6.570;2023-06-22T08:02:44;13.40;;;7.00;;
75220;SDS011;63802;53.232;6.570;2023-06-22T08:05:13;14.07;;;8.10;;
75220;SDS011;63802;53.232;6.570;2023-06-22T08:07:40;12.60;;;6.38;;
75220;SDS011;63802;53.232;6.570;2023-06-22T08:10:10;12.50;;;7.68;;
75220;SDS011;63802;53.232;6.570;2023-06-22T08:12:36;14.98;;;7.50;;
75220;SDS011;63802;53.232;6.570;2023-06-22T08:15:03;12.73;;;6.50;;
75220;SDS011;63802;53.232;6.570;2023-06-22T08:17:29;12.70;;;6.90;;
75220;SDS011;63802;53.232;6.570;2023-06-22T08:19:56;14.65;;;6.57;;
75220;SDS011;63802;53.232;6.570;2023-06-22T08:22:21;11.13;;;6.10;;
75220;SDS011;63802;53.232;6.570;2023-06-22T08:24:47;12.13;;;6.60;;
75220;SDS011;63802;53.232;6.570;2023-06-22T08:27:15;11.15;;;6.22;;
75220;SDS011;63802;53.232;6.570;2023-06-22T08:29:43;10.32;;;5.55;;
75220;SDS011;63802;53.232;6.570;2023-06-22T08:32:10;10.68;;;6.63;;
75220;SDS011;63802;53.232;6.570;2023-06-22T08:34:36;10.95;;;5.95;;
75220;SDS011;63802;53.232;6.570;2023-06-22T08:37:05;10.13;;;5.55;;
75220;SDS011;63802;53.232;6.570;2023-06-22T08:41:58;13.23;;;7.00;;
75220;SDS011;63802;53.232;6.570;2023-06-22T08:44:23;13.48;;;6.47;;
75220;SDS011;63802;53.232;6.570;2023-06-22T08:46:49;9.98;;;6.20;;
75220;SDS011;63802;53.232;6.570;2023-06-22T08:49:14;9.60;;;5.75;;
75220;SDS011;63802;53.232;6.570;2023-06-22T08:51:40;10.38;;;5.72;;
75220;SDS011;63802;53.232;6.570;2023-06-22T08:54:06;10.15;;;6.50;;
75220;SDS011;63802;53.232;6.570;2023-06-22T08:56:31;9.13;;;4.88;;
75220;SDS011;63802;53.232;6.570;2023-06-22T08:58:56;11.70;;;5.75;;
75220;SDS011;63802;53.232;6.570;2023-06-22T09:01:23;8.77;;;5.32;;
75220;SDS011;63802;53.232;6.570;2023-06-22T09:03:48;9.73;;;5.70;;
75220;SDS011;63802;53.232;6.570;2023-06-22T09:06:19;10.10;;;5.75;;
75220;SDS011;63802;53.232;6.570;2023-06-22T09:08:46;10.88;;;5.93;;
75220;SDS011;63802;53.232;6.570;2023-06-22T09:11:12;10.55;;;5.68;;
75220;SDS011;63802;53.232;6.570;2023-06-22T09:13:38;11.55;;;5.05;;
75220;SDS011;63802;53.232;6.570;2023-06-22T09:16:04;9.82;;;5.00;;
75220;SDS011;63802;53.232;6.570;2023-06-22T09:18:29;10.63;;;6.15;;
75220;SDS011;63802;53.232;6.570;2023-06-22T09:20:55;11.60;;;5.47;;
75220;SDS011;63802;53.232;6.570;2023-06-22T09:23:20;11.68;;;6.20;;
75220;SDS011;63802;53.232;6.570;2023-06-22T09:25:46;10.50;;;5.35;;
75220;SDS011;63802;53.232;6.570;2023-06-22T09:28:13;11.95;;;5.88;;
75220;SDS011;63802;53.232;6.570;2023-06-22T09:30:39;10.57;;;5.40;;
75220;SDS011;63802;53.232;6.570;2023-06-22T09:33:04;10.15;;;5.55;;
75220;SDS011;63802;53.232;6.570;2023-06-22T09:35:30;16.00;;;6.20;;
75220;SDS011;63802;53.232;6.570;2023-06-22T09:37:56;10.10;;;5.80;;
75220;SDS011;63802;53.232;6.570;2023-06-22T09:40:21;10.43;;;6.10;;
75220;SDS011;63802;53.232;6.570;2023-06-22T09:42:47;10.20;;;6.35;;
75220;SDS011;63802;53.232;6.570;2023-06-22T09:45:12;8.85;;;5.28;;
75220;SDS011;63802;53.232;6.570;2023-06-22T09:47:38;10.02;;;5.72;;
75220;SDS011;63802;53.232;6.570;2023-06-22T09:50:04;9.57;;;5.18;;
75220;SDS011;63802;53.232;6.570;2023-06-22T09:52:30;10.38;;;5.80;;
75220;SDS011;63802;53.232;6.570;2023-06-22T09:54:56;11.35;;;6.50;;
75220;SDS011;63802;53.232;6.570;2023-06-22T09:57:21;11.30;;;6.05;;
75220;SDS011;63802;53.232;6.570;2023-06-22T09:59:47;12.00;;;6.55;;
75220;SDS011;63802;53.232;6.570;2023-06-22T10:02:12;12.25;;;6.20;;
75220;SDS011;63802;53.232;6.570;2023-06-22T10:04:38;11.52;;;6.20;;
75220;SDS011;63802;53.232;6.570;2023-06-22T10:07:05;9.55;;;5.05;;
75220;SDS011;63802;53.232;6.570;2023-06-22T10:09:31;9.25;;;5.32;;
75220;SDS011;63802;53.232;6.570;2023-06-22T10:11:57;8.98;;;5.78;;
75220;SDS011;63802;53.232;6.570;2023-06-22T10:14:23;10.90;;;5.43;;
75220;SDS011;63802;53.232;6.570;2023-06-22T10:16:51;9.18;;;5.10;;
75220;SDS011;63802;53.232;6.570;2023-06-22T10:19:17;8.10;;;5.30;;
75220;SDS011;63802;53.232;6.570;2023-06-22T10:21:46;10.20;;;5.72;;
75220;SDS011;63802;53.232;6.570;2023-06-22T10:24:11;11.02;;;6.82;;
75220;SDS011;63802;53.232;6.570;2023-06-22T10:26:37;10.02;;;6.43;;
75220;SDS011;63802;53.232;6.570;2023-06-22T10:29:03;9.10;;;5.90;;
75220;SDS011;63802;53.232;6.570;2023-06-22T10:31:28;12.43;;;5.60;;
75220;SDS011;63802;53.232;6.570;2023-06-22T10:33:54;11.57;;;5.95;;
75220;SDS011;63802;53.232;6.570;2023-06-22T10:36:21;10.57;;;5.80;;
75220;SDS011;63802;53.232;6.570;2023-06-22T10:38:47;12.25;;;6.90;;
75220;SDS011;63802;53.232;6.570;2023-06-22T10:41:13;9.85;;;5.93;;
75220;SDS011;63802;53.232;6.570;2023-06-22T10:43:42;11.73;;;5.65;;
75220;SDS011;63802;53.232;6.570;2023-06-22T10:46:08;9.65;;;6.32;;
75220;SDS011;63802;53.232;6.570;2023-06-22T10:48:34;12.00;;;6.10;;
75220;SDS011;63802;53.232;6.570;2023-06-22T10:51:00;10.68;;;5.72;;
75220;SDS011;63802;53.232;6.570;2023-06-22T10:53:30;12.35;;;6.13;;
75220;SDS011;63802;53.232;6.570;2023-06-22T10:55:55;14.40;;;6.63;;
75220;SDS011;63802;53.232;6.570;2023-06-22T10:58:20;13.65;;;7.30;;
75220;SDS011;63802;53.232;6.570;2023-06-22T11:00:46;10.93;;;5.80;;
75220;SDS011;63802;53.232;6.570;2023-06-22T11:03:14;10.02;;;5.90;;
75220;SDS011;63802;53.232;6.570;2023-06-22T11:05:40;12.68;;;5.95;;
75220;SDS011;63802;53.232;6.570;2023-06-22T11:08:06;10.20;;;5.63;;
75220;SDS011;63802;53.232;6.570;2023-06-22T11:10:32;10.55;;;6.47;;
75220;SDS011;63802;53.232;6.570;2023-06-22T11:12:58;10.48;;;6.03;;
75220;SDS011;63802;53.232;6.570;2023-06-22T11:15:24;12.65;;;6.43;;
75220;SDS011;63802;53.232;6.570;2023-06-22T11:17:50;11.15;;;6.22;;
75220;SDS011;63802;53.232;6.570;2023-06-22T11:20:16;9.98;;;6.10;;
75220;SDS011;63802;53.232;6.570;2023-06-22T11:22:41;8.98;;;5.65;;
75220;SDS011;63802;53.232;6.570;2023-06-22T11:25:07;14.32;;;6.45;;
75220;SDS011;63802;53.232;6.570;2023-06-22T11:27:33;9.60;;;5.82;;
75220;SDS011;63802;53.232;6.570;2023-06-22T11:30:02;10.40;;;6.20;;
75220;SDS011;63802;53.232;6.570;2023-06-22T11:32:32;10.63;;;5.97;;
75220;SDS011;63802;53.232;6.570;2023-06-22T11:34:59;8.25;;;4.97;;
75220;SDS011;63802;53.232;6.570;2023-06-22T11:37:24;9.60;;;5.88;;
75220;SDS011;63802;53.232;6.570;2023-06-22T11:39:50;10.95;;;5.60;;
75220;SDS011;63802;53.232;6.570;2023-06-22T11:42:15;11.95;;;6.60;;
75220;SDS011;63802;53.232;6.570;2023-06-22T11:44:42;8.95;;;6.07;;
75220;SDS011;63802;53.232;6.570;2023-06-22T11:47:08;10.55;;;6.38;;
75220;SDS011;63802;53.232;6.570;2023-06-22T11:49:34;10.50;;;5.20;;
75220;SDS011;63802;53.232;6.570;2023-06-22T11:52:00;12.60;;;6.35;;
75220;SDS011;63802;53.232;6.570;2023-06-22T11:54:28;11.03;;;5.57;;
75220;SDS011;63802;53.232;6.570;2023-06-22T11:56:54;11.68;;;5.85;;
75220;SDS011;63802;53.232;6.570;2023-06-22T11:59:20;11.43;;;6.40;;
75220;SDS011;63802;53.232;6.570;2023-06-22T12:01:47;8.95;;;5.45;;
75220;SDS011;63802;53.232;6.570;2023-06-22T12:04:15;8.35;;;5.40;;
75220;SDS011;63802;53.232;6.570;2023-06-22T12:06:43;11.40;;;5.72;;
75220;SDS011;63802;53.232;6.570;2023-06-22T12:09:09;8.25;;;5.05;;
75220;SDS011;63802;53.232;6.570;2023-06-22T12:11:35;8.98;;;4.68;;
75220;SDS011;63802;53.232;6.570;2023-06-22T12:14:01;9.68;;;5.68;;
75220;SDS011;63802;53.232;6.570;2023-06-22T12:16:30;7.60;;;4.85;;
75220;SDS011;63802;53.232;6.570;2023-06-22T12:18:55;9.93;;;5.05;;
75220;SDS011;63802;53.232;6.570;2023-06-22T12:21:21;7.30;;;4.82;;
75220;SDS011;63802;53.232;6.570;2023-06-22T12:23:47;7.47;;;4.93;;
75220;SDS011;63802;53.232;6.570;2023-06-22T12:26:12;8.20;;;5.13;;
75220;SDS011;63802;53.232;6.570;2023-06-22T12:28:38;8.85;;;4.45;;
75220;SDS011;63802;53.232;6.570;2023-06-22T12:31:04;9.15;;;4.55;;
75220;SDS011;63802;53.232;6.570;2023-06-22T12:33:29;11.35;;;5.35;;
75220;SDS011;63802;53.232;6.570;2023-06-22T12:35:55;9.30;;;4.93;;
75220;SDS011;63802;53.232;6.570;2023-06-22T12:38:22;8.40;;;4.45;;
75220;SDS011;63802;53.232;6.570;2023-06-22T12:40:50;11.75;;;5.80;;
75220;SDS011;63802;53.232;6.570;2023-06-22T12:43:16;6.80;;;3.92;;
75220;SDS011;63802;53.232;6.570;2023-06-22T12:45:42;7.43;;;4.50;;
75220;SDS011;63802;53.232;6.570;2023-06-22T12:48:07;6.78;;;4.03;;
75220;SDS011;63802;53.232;6.570;2023-06-22T12:50:33;10.10;;;4.22;;
75220;SDS011;63802;53.232;6.570;2023-06-22T12:53:03;8.27;;;4.28;;
75220;SDS011;63802;53.232;6.570;2023-06-22T12:55:31;8.23;;;3.78;;
75220;SDS011;63802;53.232;6.570;2023-06-22T12:57:56;8.27;;;3.97;;
75220;SDS011;63802;53.232;6.570;2023-06-22T13:00:26;6.97;;;4.00;;
75220;SDS011;63802;53.232;6.570;2023-06-22T13:02:51;9.73;;;3.75;;
75220;SDS011;63802;53.232;6.570;2023-06-22T13:05:17;9.15;;;4.15;;
75220;SDS011;63802;53.232;6.570;2023-06-22T13:07:42;6.78;;;3.75;;
75220;SDS011;63802;53.232;6.570;2023-06-22T13:10:08;6.03;;;3.50;;
75220;SDS011;63802;53.232;6.570;2023-06-22T13:12:34;7.20;;;3.03;;
75220;SDS011;63802;53.232;6.570;2023-06-22T13:14:59;4.38;;;2.80;;
75220;SDS011;63802;53.232;6.570;2023-06-22T13:17:25;5.75;;;3.70;;
75220;SDS011;63802;53.232;6.570;2023-06-22T13:19:50;5.05;;;3.30;;
75220;SDS011;63802;53.232;6.570;2023-06-22T13:22:31;6.03;;;3.08;;
75220;SDS011;63802;53.232;6.570;2023-06-22T13:25:09;7.05;;;3.08;;
75220;SDS011;63802;53.232;6.570;2023-06-22T13:27:37;5.78;;;3.20;;
75220;SDS011;63802;53.232;6.570;2023-06-22T13:30:06;5.85;;;3.00;;
75220;SDS011;63802;53.232;6.570;2023-06-22T13:32:33;6.50;;;3.03;;
75220;SDS011;63802;53.232;6.570;2023-06-22T13:35:02;5.20;;;2.97;;
75220;SDS011;63802;53.232;6.570;2023-06-22T13:37:27;6.32;;;3.08;;
75220;SDS011;63802;53.232;6.570;2023-06-22T13:39:53;5.78;;;3.05;;
75220;SDS011;63802;53.232;6.570;2023-06-22T13:42:21;5.45;;;2.95;;
75220;SDS011;63802;53.232;6.570;2023-06-22T13:44:52;8.38;;;3.05;;
75220;SDS011;63802;53.232;6.570;2023-06-22T13:47:23;4.13;;;2.78;;
75220;SDS011;63802;53.232;6.570;2023-06-22T13:49:49;6.57;;;2.83;;
75220;SDS011;63802;53.232;6.570;2023-06-22T13:52:14;5.03;;;2.80;;
75220;SDS011;63802;53.232;6.570;2023-06-22T13:54:40;4.82;;;3.15;;
75220;SDS011;63802;53.232;6.570;2023-06-22T13:57:05;5.22;;;2.67;;
75220;SDS011;63802;53.232;6.570;2023-06-22T13:59:32;5.55;;;2.72;;
75220;SDS011;63802;53.232;6.570;2023-06-22T14:01:57;6.60;;;2.35;;
75220;SDS011;63802;53.232;6.570;2023-06-22T14:04:25;5.63;;;2.85;;
75220;SDS011;63802;53.232;6.570;2023-06-22T14:06:51;5.47;;;3.28;;
75220;SDS011;63802;53.232;6.570;2023-06-22T14:09:22;6.47;;;2.67;;
75220;SDS011;63802;53.232;6.570;2023-06-22T14:12:09;6.70;;;2.65;;
75220;SDS011;63802;53.232;6.570;2023-06-22T14:14:36;5.85;;;2.67;;
75220;SDS011;63802;53.232;6.570;2023-06-22T14:17:11;3.58;;;2.30;;
75220;SDS011;63802;53.232;6.570;2023-06-22T14:19:39;4.78;;;2.47;;
75220;SDS011;63802;53.232;6.570;2023-06-22T14:22:05;3.70;;;2.10;;
75220;SDS011;63802;53.232;6.570;2023-06-22T14:24:34;5.65;;;2.50;;
75220;SDS011;63802;53.232;6.570;2023-06-22T14:27:00;3.92;;;2.00;;
75220;SDS011;63802;53.232;6.570;2023-06-22T14:29:28;5.60;;;2.00;;
75220;SDS011;63802;53.232;6.570;2023-06-22T14:31:54;5.43;;;2.10;;
75220;SDS011;63802;53.232;6.570;2023-06-22T14:34:23;3.88;;;1.90;;
75220;SDS011;63802;53.232;6.570;2023-06-22T14:36:48;4.00;;;2.30;;
75220;SDS011;63802;53.232;6.570;2023-06-22T14:39:14;2.15;;;1.50;;
75220;SDS011;63802;53.232;6.570;2023-06-22T14:41:40;3.10;;;1.65;;